Terminal Aerodrome Forecast
Issued by NWS Newport/Morehead City, NC

Home | Current Version | Previous Version | Graphics & Text | Print | Product List | Glossary On
Versions: 1 2 3 4 5 6 7 8 9 10 11 12 13 14 15
503
FTUS42 KMHX 151141
TAFEWN
TAF
KEWN 151141Z 1512/1612 01007KT P6SM SCT200
     FM151700 36007KT P6SM SCT020 BKN060
      TEMPO 1517/1521 BKN025
     FM152100 35005KT P6SM BKN020 BKN040
     FM160800 32005KT P6SM BKN030=

USA.gov is the U.S. government's official web portal to all federal, state and local government web resources and services.